createdAt,value
2022-10-29T00:01:18.586Z,13.10
2022-10-29T00:03:47.248Z,13.10
2022-10-29T00:06:14.833Z,13.10
2022-10-29T00:08:42.584Z,13.10
2022-10-29T00:11:18.912Z,13.10
2022-10-29T00:13:47.064Z,13.00
2022-10-29T00:16:19.453Z,13.00
2022-10-29T00:18:46.615Z,13.00
2022-10-29T00:21:16.688Z,13.00
2022-10-29T00:23:43.638Z,13.00
2022-10-29T00:26:10.801Z,12.90
2022-10-29T00:28:37.889Z,12.90
2022-10-29T00:31:06.131Z,12.90
2022-10-29T00:33:33.478Z,12.90
2022-10-29T00:36:06.332Z,12.90
2022-10-29T00:38:34.550Z,12.90
2022-10-29T00:41:02.244Z,12.90
2022-10-29T00:43:29.103Z,13.00
2022-10-29T00:45:58.777Z,13.10
2022-10-29T00:48:27.986Z,13.20
2022-10-29T00:50:55.973Z,13.30
2022-10-29T00:53:28.856Z,13.30
2022-10-29T00:55:55.813Z,13.40
2022-10-29T00:58:22.735Z,13.40
2022-10-29T01:00:49.427Z,13.50
2022-10-29T01:03:16.320Z,13.50
2022-10-29T01:05:45.152Z,13.50
2022-10-29T01:08:13.101Z,13.50
2022-10-29T01:11:07.375Z,13.50
2022-10-29T01:13:52.202Z,13.50
2022-10-29T01:16:35.176Z,13.60
2022-10-29T01:19:27.147Z,13.60
2022-10-29T01:22:16.990Z,13.60
2022-10-29T01:25:13.574Z,13.60
2022-10-29T01:27:59.196Z,13.60
2022-10-29T01:31:00.492Z,13.60
2022-10-29T01:33:54.281Z,13.60
2022-10-29T01:36:23.741Z,13.60
2022-10-29T01:39:08.669Z,13.60
2022-10-29T01:41:53.367Z,13.60
2022-10-29T01:44:34.467Z,13.60
2022-10-29T01:47:04.272Z,13.60
2022-10-29T01:49:43.372Z,13.60
2022-10-29T01:52:13.733Z,13.60
2022-10-29T01:54:45.703Z,13.60
2022-10-29T01:57:29.628Z,13.60
2022-10-29T02:00:12.823Z,13.60
2022-10-29T02:02:51.470Z,13.60
2022-10-29T02:05:31.915Z,13.60
2022-10-29T02:08:16.653Z,13.60
2022-10-29T02:11:04.984Z,13.60
2022-10-29T02:13:37.720Z,13.60
2022-10-29T02:16:06.848Z,13.50
2022-10-29T02:18:45.783Z,13.50
2022-10-29T02:21:17.245Z,13.50
2022-10-29T02:23:44.654Z,13.50
2022-10-29T02:26:11.810Z,13.60
2022-10-29T02:28:38.560Z,13.60
2022-10-29T02:31:05.808Z,13.60
2022-10-29T02:33:32.486Z,13.60
2022-10-29T02:35:59.258Z,13.60
2022-10-29T02:38:25.801Z,13.60
2022-10-29T02:40:52.691Z,13.60
2022-10-29T02:45:50.963Z,13.60
2022-10-29T02:48:17.570Z,13.60
2022-10-29T02:50:44.266Z,13.60
2022-10-29T02:53:10.905Z,13.60
2022-10-29T02:55:37.565Z,13.60
2022-10-29T02:58:04.289Z,13.60
2022-10-29T03:00:31.000Z,13.50
2022-10-29T03:02:58.190Z,13.60
2022-10-29T03:05:25.400Z,13.60
2022-10-29T03:07:51.962Z,13.60
2022-10-29T03:10:18.598Z,13.50
2022-10-29T03:12:45.227Z,13.50
2022-10-29T03:15:11.872Z,13.50
2022-10-29T03:17:38.495Z,13.50
2022-10-29T03:20:05.940Z,13.40
2022-10-29T03:22:32.619Z,13.40
2022-10-29T03:24:59.242Z,13.40
2022-10-29T03:27:26.075Z,13.40
2022-10-29T03:29:52.857Z,13.30
2022-10-29T03:32:20.051Z,13.30
2022-10-29T03:34:46.674Z,13.30
2022-10-29T03:37:13.319Z,13.20
2022-10-29T03:39:39.942Z,13.20
2022-10-29T03:42:06.687Z,13.20
2022-10-29T03:44:33.394Z,13.20
2022-10-29T03:46:59.970Z,13.30
2022-10-29T03:49:26.694Z,13.30
2022-10-29T03:51:53.329Z,13.30
2022-10-29T03:54:20.079Z,13.30
2022-10-29T03:56:46.710Z,13.30
2022-10-29T03:59:13.342Z,13.30
2022-10-29T04:01:40.168Z,13.40
2022-10-29T04:04:06.864Z,13.40
2022-10-29T04:06:33.591Z,13.40
2022-10-29T04:09:00.144Z,13.40
2022-10-29T04:11:26.816Z,13.40
2022-10-29T04:13:53.976Z,13.40
2022-10-29T04:16:20.817Z,13.40
2022-10-29T04:18:47.971Z,13.40
2022-10-29T04:29:35.583Z,13.30
2022-10-29T04:32:02.301Z,13.30
2022-10-29T04:34:28.956Z,13.30
2022-10-29T04:36:55.652Z,13.30
2022-10-29T04:39:23.602Z,13.40
2022-10-29T04:41:50.416Z,13.30
2022-10-29T04:44:17.118Z,13.30
2022-10-29T04:46:43.746Z,13.30
2022-10-29T04:49:10.605Z,13.30
2022-10-29T04:51:37.764Z,13.30
2022-10-29T04:54:04.688Z,13.30
2022-10-29T04:56:31.459Z,13.30
2022-10-29T04:58:58.055Z,13.30
2022-10-29T05:01:25.045Z,13.30
2022-10-29T05:03:55.528Z,13.30
2022-10-29T05:06:25.680Z,13.30
2022-10-29T05:08:52.318Z,13.30
2022-10-29T05:11:18.984Z,13.20
2022-10-29T05:13:45.658Z,13.20
2022-10-29T05:16:12.402Z,13.20
2022-10-29T05:18:39.593Z,13.20
2022-10-29T05:21:06.848Z,13.10
2022-10-29T05:23:33.587Z,13.10
2022-10-29T05:26:00.270Z,13.10
2022-10-29T05:28:26.975Z,13.10
2022-10-29T05:30:54.082Z,13.20
2022-10-29T05:33:23.915Z,13.10
2022-10-29T05:35:51.318Z,13.20
2022-10-29T05:38:18.073Z,13.20
2022-10-29T05:40:45.555Z,13.30
2022-10-29T05:43:16.419Z,13.30
2022-10-29T05:45:43.988Z,13.30
2022-10-29T05:50:43.644Z,13.40
2022-10-29T05:53:12.457Z,13.50
2022-10-29T05:55:39.856Z,13.50
2022-10-29T05:58:10.089Z,13.50
2022-10-29T06:00:39.230Z,13.50
2022-10-29T06:03:14.880Z,13.50
2022-10-29T06:05:41.648Z,13.50
2022-10-29T06:08:08.816Z,13.40
2022-10-29T06:10:35.993Z,13.40
2022-10-29T06:13:02.797Z,13.40
2022-10-29T06:15:29.375Z,13.30
2022-10-29T06:17:56.455Z,13.30
2022-10-29T06:20:23.368Z,13.20
2022-10-29T06:22:58.088Z,13.20
2022-10-29T06:25:26.444Z,13.20
2022-10-29T06:28:04.476Z,13.10
2022-10-29T06:30:33.465Z,13.10
2022-10-29T06:33:01.070Z,13.10
2022-10-29T06:35:28.073Z,13.10
2022-10-29T06:37:55.332Z,13.10
2022-10-29T06:40:22.685Z,13.20
2022-10-29T06:42:49.448Z,13.30
2022-10-29T06:45:16.078Z,13.40
2022-10-29T06:47:44.375Z,13.60
2022-10-29T06:50:13.421Z,13.70
2022-10-29T06:52:40.083Z,13.90
2022-10-29T06:55:08.280Z,14.20
2022-10-29T06:57:35.006Z,14.50
2022-10-29T07:00:05.652Z,14.80
2022-10-29T07:02:35.337Z,15.10
2022-10-29T07:05:01.982Z,15.40
2022-10-29T07:07:29.405Z,15.70
2022-10-29T07:09:56.246Z,16.00
2022-10-29T07:12:22.952Z,16.30
2022-10-29T07:14:49.626Z,16.40
2022-10-29T07:17:16.379Z,16.60
2022-10-29T07:19:43.020Z,16.70
2022-10-29T07:22:09.637Z,16.80
2022-10-29T07:24:36.387Z,16.90
2022-10-29T07:27:03.093Z,17.00
2022-10-29T07:29:29.789Z,17.10
2022-10-29T07:31:56.583Z,17.20
2022-10-29T07:34:23.270Z,17.30
2022-10-29T07:36:49.888Z,17.50
2022-10-29T07:39:17.165Z,17.60
2022-10-29T07:41:43.909Z,17.70
2022-10-29T07:44:11.070Z,17.90
2022-10-29T07:46:37.782Z,18.00
2022-10-29T07:49:04.401Z,18.10
2022-10-29T07:51:31.127Z,18.30
2022-10-29T07:53:58.002Z,18.40
2022-10-29T07:56:24.699Z,18.60
2022-10-29T07:58:51.264Z,18.80
2022-10-29T08:01:18.107Z,19.00
2022-10-29T08:03:44.945Z,19.20
2022-10-29T08:06:11.773Z,19.40
2022-10-29T08:08:38.455Z,19.60
2022-10-29T08:11:05.144Z,19.80
2022-10-29T08:13:31.855Z,20.00
2022-10-29T08:15:58.696Z,20.30
2022-10-29T08:18:25.356Z,20.50
2022-10-29T08:20:51.959Z,20.70
2022-10-29T08:23:18.829Z,21.10
2022-10-29T08:25:45.517Z,21.30
2022-10-29T08:28:14.560Z,21.50
2022-10-29T08:30:43.834Z,21.80
2022-10-29T08:33:11.066Z,22.00
2022-10-29T08:35:37.817Z,22.20
2022-10-29T08:38:04.540Z,22.50
2022-10-29T08:40:49.827Z,22.80
2022-10-29T08:43:53.519Z,23.00
2022-10-29T08:46:43.159Z,23.20
2022-10-29T08:49:25.313Z,23.30
2022-10-29T08:52:11.777Z,23.50
2022-10-29T08:54:42.274Z,23.70
2022-10-29T08:57:15.481Z,23.80
2022-10-29T09:00:04.581Z,23.90
2022-10-29T09:02:31.325Z,24.10
2022-10-29T09:04:59.359Z,24.30
2022-10-29T09:07:49.222Z,24.40
2022-10-29T09:10:37.286Z,24.50
2022-10-29T09:13:29.100Z,24.60
2022-10-29T09:16:17.742Z,24.70
2022-10-29T09:18:54.478Z,24.80
2022-10-29T09:21:45.749Z,24.80
2022-10-29T09:24:35.240Z,24.70
2022-10-29T09:27:29.364Z,24.70
2022-10-29T09:30:15.735Z,24.70
2022-10-29T09:33:01.411Z,24.70
2022-10-29T09:35:53.416Z,24.70
2022-10-29T09:38:44.124Z,24.80
2022-10-29T09:41:12.357Z,25.00
2022-10-29T09:44:04.406Z,25.20
2022-10-29T09:46:46.147Z,25.50
2022-10-29T09:49:39.250Z,25.70
2022-10-29T09:52:21.693Z,26.00
2022-10-29T09:54:50.874Z,26.20
2022-10-29T09:57:21.442Z,26.50
2022-10-29T10:00:00.961Z,26.70
2022-10-29T10:02:30.668Z,26.90
2022-10-29T10:05:33.679Z,27.20
2022-10-29T10:08:14.545Z,27.50
2022-10-29T10:10:55.614Z,27.70
2022-10-29T10:13:31.085Z,27.90
2022-10-29T10:16:00.730Z,28.10
2022-10-29T10:18:38.148Z,28.30
2022-10-29T10:21:12.117Z,28.50
2022-10-29T10:23:54.561Z,28.80
2022-10-29T10:26:42.890Z,29.10
2022-10-29T10:29:14.474Z,29.30
2022-10-29T10:31:49.453Z,29.50
2022-10-29T10:34:20.445Z,29.60
2022-10-29T10:37:02.540Z,29.60
2022-10-29T10:39:40.876Z,29.60
2022-10-29T10:42:22.780Z,29.60
2022-10-29T10:44:52.985Z,29.70
2022-10-29T10:47:23.035Z,29.70
2022-10-29T10:49:49.855Z,29.80
2022-10-29T10:52:19.626Z,29.90
2022-10-29T10:55:01.346Z,30.00
2022-10-29T10:57:53.954Z,30.10
2022-10-29T11:00:22.395Z,30.20
2022-10-29T11:03:03.855Z,30.30
2022-10-29T11:05:38.198Z,30.30
2022-10-29T11:08:09.597Z,30.30
2022-10-29T11:10:53.425Z,30.40
2022-10-29T11:13:26.857Z,30.40
2022-10-29T11:16:17.883Z,30.50
2022-10-29T11:19:04.200Z,30.70
2022-10-29T11:21:39.359Z,30.80
2022-10-29T11:24:11.054Z,30.90
2022-10-29T11:26:41.087Z,30.90
2022-10-29T11:29:22.917Z,31.10
2022-10-29T11:32:00.375Z,31.10
2022-10-29T11:34:51.328Z,31.10
2022-10-29T11:37:49.979Z,31.20
2022-10-29T11:40:27.023Z,31.10
2022-10-29T11:42:54.404Z,31.20
2022-10-29T11:45:34.430Z,31.10
2022-10-29T11:48:07.164Z,31.10
2022-10-29T11:51:04.538Z,31.10
2022-10-29T11:53:40.336Z,31.10
2022-10-29T11:56:33.122Z,31.20
2022-10-29T11:59:22.044Z,31.20
2022-10-29T12:02:13.981Z,31.20
2022-10-29T12:05:13.910Z,31.20
2022-10-29T12:08:08.973Z,31.10
2022-10-29T12:10:50.462Z,30.90
2022-10-29T12:13:41.858Z,30.70
2022-10-29T12:16:17.626Z,30.40
2022-10-29T12:19:02.063Z,30.20
2022-10-29T12:22:02.702Z,30.00
2022-10-29T12:24:48.555Z,29.80
2022-10-29T12:27:45.632Z,29.60
2022-10-29T12:30:15.888Z,29.40
2022-10-29T12:33:06.584Z,29.30
2022-10-29T12:35:40.805Z,29.20
2022-10-29T12:38:42.666Z,29.00
2022-10-29T12:41:20.888Z,28.80
2022-10-29T12:43:48.337Z,28.70
2022-10-29T12:46:35.701Z,28.60
2022-10-29T12:49:13.737Z,28.50
2022-10-29T12:51:43.598Z,28.50
2022-10-29T12:54:29.193Z,28.40
2022-10-29T12:57:02.666Z,28.30
2022-10-29T12:59:35.610Z,28.20
2022-10-29T13:02:27.203Z,28.10
2022-10-29T13:05:06.623Z,28.00
2022-10-29T13:07:34.099Z,27.90
2022-10-29T13:10:22.932Z,27.70
2022-10-29T13:13:13.827Z,27.60
2022-10-29T13:15:44.469Z,27.60
2022-10-29T13:18:41.743Z,27.50
2022-10-29T13:21:09.047Z,27.40
2022-10-29T13:23:37.573Z,27.30
2022-10-29T13:26:06.244Z,27.20
2022-10-29T13:28:35.880Z,27.00
2022-10-29T13:31:08.008Z,27.00
2022-10-29T13:33:37.509Z,26.90
2022-10-29T13:36:16.394Z,26.80
2022-10-29T13:38:57.902Z,26.80
2022-10-29T13:41:42.857Z,26.70
2022-10-29T13:44:25.998Z,26.70
2022-10-29T13:47:17.745Z,26.70
2022-10-29T13:49:46.406Z,26.70
2022-10-29T13:52:18.347Z,26.60
2022-10-29T13:55:02.920Z,26.50
2022-10-29T13:57:35.710Z,26.50
2022-10-29T14:00:18.707Z,26.40
2022-10-29T14:02:52.942Z,26.40
2022-10-29T14:05:38.297Z,26.30
2022-10-29T14:08:24.130Z,26.20
2022-10-29T14:10:54.776Z,26.10
2022-10-29T14:13:33.897Z,26.00
2022-10-29T14:16:03.455Z,25.80
2022-10-29T14:18:38.706Z,25.70
2022-10-29T14:21:21.829Z,25.60
2022-10-29T14:24:09.947Z,25.40
2022-10-29T14:26:39.029Z,25.30
2022-10-29T14:29:18.390Z,25.20
2022-10-29T14:31:45.884Z,25.00
2022-10-29T14:34:25.966Z,25.00
2022-10-29T14:36:58.377Z,24.80
2022-10-29T14:39:57.079Z,24.70
2022-10-29T14:42:32.380Z,24.50
2022-10-29T14:45:21.613Z,24.40
2022-10-29T14:48:09.424Z,24.20
2022-10-29T14:50:36.725Z,24.00
2022-10-29T14:53:20.454Z,23.80
2022-10-29T14:55:49.306Z,23.60
2022-10-29T14:58:17.836Z,23.40
2022-10-29T15:00:56.439Z,23.20
2022-10-29T15:03:25.697Z,22.90
2022-10-29T15:06:09.974Z,22.70
2022-10-29T15:08:40.165Z,22.50
2022-10-29T15:11:34.442Z,22.20
2022-10-29T15:14:23.952Z,22.10
2022-10-29T15:16:52.537Z,21.90
2022-10-29T15:19:19.495Z,21.70
2022-10-29T15:21:46.298Z,21.50
2022-10-29T15:24:20.480Z,21.30
2022-10-29T15:26:58.879Z,21.10
2022-10-29T15:29:34.850Z,20.80
2022-10-29T15:32:04.036Z,20.60
2022-10-29T15:34:37.288Z,20.50
2022-10-29T15:37:19.185Z,20.30
2022-10-29T15:40:02.650Z,20.10
2022-10-29T15:42:35.307Z,20.00
2022-10-29T15:45:08.318Z,19.80
2022-10-29T15:47:40.648Z,19.70
2022-10-29T15:50:11.654Z,19.50
2022-10-29T15:52:42.072Z,19.40
2022-10-29T15:55:14.618Z,19.30
2022-10-29T15:57:41.854Z,19.10
2022-10-29T16:00:11.220Z,19.00
2022-10-29T16:02:37.926Z,18.80
2022-10-29T16:05:05.112Z,18.70
2022-10-29T16:07:32.611Z,18.60
2022-10-29T16:09:59.928Z,18.50
2022-10-29T16:12:26.607Z,18.40
2022-10-29T16:14:53.229Z,18.20
2022-10-29T16:17:20.916Z,18.10
2022-10-29T16:19:47.682Z,18.00
2022-10-29T16:22:16.342Z,17.90
2022-10-29T16:24:43.130Z,17.80
2022-10-29T16:27:18.302Z,17.70
2022-10-29T16:29:49.805Z,17.60
2022-10-29T16:32:18.369Z,17.50
2022-10-29T16:34:45.132Z,17.40
2022-10-29T16:37:13.652Z,17.40
2022-10-29T16:39:40.968Z,17.30
2022-10-29T16:42:10.374Z,17.20
2022-10-29T16:44:37.057Z,17.20
2022-10-29T16:47:03.637Z,17.10
2022-10-29T16:49:30.268Z,17.10
2022-10-29T16:51:56.851Z,17.00
2022-10-29T16:54:23.508Z,16.90
2022-10-29T16:56:52.614Z,16.90
2022-10-29T16:59:19.361Z,16.80
2022-10-29T17:01:47.764Z,16.70
2022-10-29T17:04:14.489Z,16.70
2022-10-29T17:06:41.223Z,16.60
2022-10-29T17:09:07.865Z,16.60
2022-10-29T17:11:34.552Z,16.50
2022-10-29T17:14:01.262Z,16.50
2022-10-29T17:16:27.896Z,16.40
2022-10-29T17:18:54.799Z,16.40
2022-10-29T17:21:21.469Z,16.30
2022-10-29T17:23:49.256Z,16.30
2022-10-29T17:26:16.166Z,16.20
2022-10-29T17:28:43.008Z,16.20
2022-10-29T17:31:11.279Z,16.10
2022-10-29T17:33:38.103Z,16.10
2022-10-29T17:36:10.777Z,16.10
2022-10-29T17:38:37.441Z,16.10
2022-10-29T17:41:04.124Z,16.00
2022-10-29T17:43:30.933Z,16.00
2022-10-29T17:45:57.655Z,16.00
2022-10-29T17:48:25.158Z,15.90
2022-10-29T17:50:56.794Z,15.90
2022-10-29T17:53:24.410Z,15.80
2022-10-29T17:55:51.457Z,15.80
2022-10-29T17:58:19.511Z,15.80
2022-10-29T18:00:48.399Z,15.70
2022-10-29T18:03:15.308Z,15.70
2022-10-29T18:05:41.864Z,15.70
2022-10-29T18:08:08.643Z,15.70
2022-10-29T18:10:35.748Z,15.70
2022-10-29T18:13:02.492Z,15.60
2022-10-29T18:15:29.163Z,15.60
2022-10-29T18:17:58.166Z,15.50
2022-10-29T18:20:24.835Z,15.50
2022-10-29T18:22:55.547Z,15.50
2022-10-29T18:25:22.781Z,15.50
2022-10-29T18:27:55.298Z,15.50
2022-10-29T18:30:25.135Z,15.40
2022-10-29T18:32:52.010Z,15.40
2022-10-29T18:35:18.765Z,15.40
2022-10-29T18:37:45.949Z,15.30
2022-10-29T18:40:13.030Z,15.30
2022-10-29T18:42:39.750Z,15.20
2022-10-29T18:45:06.656Z,15.20
2022-10-29T18:47:33.282Z,15.10
2022-10-29T18:49:59.964Z,15.10
2022-10-29T18:52:26.597Z,15.00
2022-10-29T18:54:53.281Z,14.90
2022-10-29T18:57:19.955Z,14.90
2022-10-29T18:59:46.590Z,14.90
2022-10-29T19:02:13.394Z,14.80
2022-10-29T19:04:40.226Z,14.80
2022-10-29T19:07:06.853Z,14.80
2022-10-29T19:09:33.823Z,14.70
2022-10-29T19:12:00.456Z,14.70
2022-10-29T19:14:27.107Z,14.70
2022-10-29T19:16:53.765Z,14.70
2022-10-29T19:19:22.934Z,14.70
2022-10-29T19:21:50.889Z,14.60
2022-10-29T19:24:17.664Z,14.60
2022-10-29T19:26:44.417Z,14.60
2022-10-29T19:29:11.318Z,14.50
2022-10-29T19:31:38.537Z,14.40
2022-10-29T19:34:07.004Z,14.40
2022-10-29T19:36:35.800Z,14.30
2022-10-29T19:39:03.890Z,14.40
2022-10-29T19:41:31.132Z,14.30
2022-10-29T19:44:02.009Z,14.30
2022-10-29T19:46:28.816Z,14.30
2022-10-29T19:48:56.201Z,14.30
2022-10-29T19:51:23.307Z,14.30
2022-10-29T19:53:53.487Z,14.30
2022-10-29T19:56:21.321Z,14.20
2022-10-29T19:58:48.159Z,14.20
2022-10-29T20:01:18.983Z,14.10
2022-10-29T20:03:46.832Z,14.10
2022-10-29T20:06:14.439Z,14.10
2022-10-29T20:08:41.210Z,14.00
2022-10-29T20:11:08.160Z,14.00
2022-10-29T20:13:35.218Z,13.90
2022-10-29T20:16:12.079Z,13.90
2022-10-29T20:18:38.859Z,13.90
2022-10-29T20:23:37.953Z,13.90
2022-10-29T20:26:05.403Z,14.00
2022-10-29T20:28:32.159Z,13.90
2022-10-29T20:31:14.319Z,13.90
2022-10-29T20:33:41.008Z,14.00
2022-10-29T20:36:07.952Z,13.90
2022-10-29T20:38:35.012Z,13.90
2022-10-29T20:41:01.685Z,13.80
2022-10-29T20:43:28.461Z,13.80
2022-10-29T20:45:58.823Z,13.70
2022-10-29T20:48:25.504Z,13.70
2022-10-29T20:50:52.572Z,13.70
2022-10-29T20:53:19.298Z,13.70
2022-10-29T20:55:50.578Z,13.70
2022-10-29T20:58:21.237Z,13.70
2022-10-29T21:00:48.675Z,13.60
2022-10-29T21:03:16.947Z,13.60
2022-10-29T21:05:44.696Z,13.50
2022-10-29T21:08:11.433Z,13.50
2022-10-29T21:10:38.134Z,13.50
2022-10-29T21:13:05.037Z,13.50
2022-10-29T21:15:35.697Z,13.50
2022-10-29T21:18:02.433Z,13.50
2022-10-29T21:20:29.146Z,13.50
2022-10-29T21:22:55.966Z,13.50
2022-10-29T21:25:22.765Z,13.50
2022-10-29T21:27:53.880Z,13.50
2022-10-29T21:30:20.768Z,13.40
2022-10-29T21:32:47.389Z,13.40
2022-10-29T21:35:14.185Z,13.30
2022-10-29T21:37:40.861Z,13.20
2022-10-29T21:40:08.282Z,13.20
2022-10-29T21:42:34.969Z,13.20
2022-10-29T21:45:01.633Z,13.20
2022-10-29T21:47:28.253Z,13.10
2022-10-29T21:49:55.017Z,13.20
2022-10-29T21:52:21.616Z,13.10
2022-10-29T21:54:48.267Z,13.10
2022-10-29T21:57:14.907Z,13.10
2022-10-29T21:59:41.568Z,13.10
2022-10-29T22:02:08.281Z,13.00
2022-10-29T22:04:35.091Z,13.00
2022-10-29T22:07:03.372Z,13.00
2022-10-29T22:09:30.029Z,12.90
2022-10-29T22:11:56.721Z,12.90
2022-10-29T22:14:23.340Z,12.90
2022-10-29T22:16:50.123Z,12.90
2022-10-29T22:19:16.797Z,12.90
2022-10-29T22:21:45.084Z,12.90
2022-10-29T22:24:11.782Z,12.90
2022-10-29T22:26:38.640Z,12.90
2022-10-29T22:29:05.297Z,12.90
2022-10-29T22:31:31.997Z,12.80
2022-10-29T22:33:58.705Z,12.90
2022-10-29T22:36:26.075Z,12.80
2022-10-29T22:38:56.619Z,12.80
2022-10-29T22:41:25.650Z,12.80
2022-10-29T22:43:52.356Z,12.80
2022-10-29T22:46:19.576Z,12.80
2022-10-29T22:48:46.576Z,12.80
2022-10-29T22:51:19.243Z,12.80
2022-10-29T22:53:47.363Z,12.70
2022-10-29T22:56:22.063Z,12.70
2022-10-29T22:58:49.066Z,12.70
2022-10-29T23:01:21.892Z,12.70
2022-10-29T23:03:49.393Z,12.60
2022-10-29T23:06:18.504Z,12.60
2022-10-29T23:08:45.842Z,12.60
2022-10-29T23:11:21.347Z,12.50
2022-10-29T23:13:49.606Z,12.50
2022-10-29T23:16:16.400Z,12.40
2022-10-29T23:18:43.496Z,12.40
2022-10-29T23:21:10.182Z,12.30
2022-10-29T23:23:36.826Z,12.20
2022-10-29T23:26:04.178Z,12.20
2022-10-29T23:28:35.398Z,12.20
2022-10-29T23:31:04.466Z,12.10
2022-10-29T23:33:32.362Z,12.10
2022-10-29T23:36:03.196Z,12.10
2022-10-29T23:38:30.861Z,12.10
2022-10-29T23:40:57.621Z,12.10
2022-10-29T23:43:24.227Z,12.10
2022-10-29T23:45:50.900Z,12.10
2022-10-29T23:48:18.233Z,12.10
2022-10-29T23:50:45.492Z,12.10
2022-10-29T23:53:12.680Z,12.10
2022-10-29T23:55:39.503Z,12.10
2022-10-29T23:58:06.148Z,12.10
